createdAt,value
2023-03-06T00:01:01.723Z,52.29
2023-03-06T00:03:29.104Z,52.47
2023-03-06T00:05:58.758Z,51.90
2023-03-06T00:08:28.481Z,51.85
2023-03-06T00:10:56.670Z,52.37
2023-03-06T00:13:29.958Z,52.20
2023-03-06T00:16:01.237Z,52.53
2023-03-06T00:18:28.449Z,52.61
2023-03-06T00:20:55.526Z,52.36
2023-03-06T00:23:22.702Z,52.42
2023-03-06T00:25:49.730Z,52.07
2023-03-06T00:28:17.805Z,51.82
2023-03-06T00:30:46.470Z,51.93
2023-03-06T00:33:13.626Z,51.98
2023-03-06T00:35:41.708Z,52.40
2023-03-06T00:38:12.383Z,52.40
2023-03-06T00:40:39.609Z,51.74
2023-03-06T00:43:06.811Z,52.23
2023-03-06T00:45:34.345Z,51.92
2023-03-06T00:48:01.564Z,51.60
2023-03-06T00:50:28.887Z,51.51
2023-03-06T00:52:56.477Z,51.95
2023-03-06T00:55:25.135Z,51.80
2023-03-06T00:57:52.354Z,51.88
2023-03-06T01:00:20.406Z,52.47
2023-03-06T01:02:49.735Z,52.40
2023-03-06T01:05:17.054Z,52.43
2023-03-06T01:07:44.175Z,52.48
2023-03-06T01:10:12.221Z,52.80
2023-03-06T01:12:39.351Z,52.53
2023-03-06T01:15:08.080Z,52.32
2023-03-06T01:17:35.193Z,52.63
2023-03-06T01:20:03.690Z,52.61
2023-03-06T01:22:31.065Z,52.36
2023-03-06T01:24:59.687Z,52.51
2023-03-06T01:27:26.766Z,52.65
2023-03-06T01:29:53.906Z,53.19
2023-03-06T01:32:22.090Z,53.16
2023-03-06T01:34:49.735Z,53.00
2023-03-06T01:37:16.945Z,53.46
2023-03-06T01:39:43.991Z,53.18
2023-03-06T01:42:11.203Z,53.25
2023-03-06T01:44:58.510Z,53.17
2023-03-06T01:47:25.764Z,53.15
2023-03-06T01:49:53.611Z,52.96
2023-03-06T01:52:27.297Z,52.86
2023-03-06T01:54:59.766Z,52.96
2023-03-06T01:57:41.491Z,52.89
2023-03-06T02:00:11.847Z,52.72
2023-03-06T02:02:48.778Z,52.75
2023-03-06T02:05:16.260Z,53.05
2023-03-06T02:07:44.719Z,52.98
2023-03-06T02:10:15.955Z,52.87
2023-03-06T02:12:44.795Z,52.72
2023-03-06T02:15:19.301Z,52.74
2023-03-06T02:17:48.659Z,52.45
2023-03-06T02:20:44.132Z,52.62
2023-03-06T02:23:38.368Z,52.94
2023-03-06T02:26:07.473Z,53.03
2023-03-06T02:28:34.925Z,52.77
2023-03-06T02:31:02.141Z,52.97
2023-03-06T02:33:30.051Z,53.07
2023-03-06T02:36:05.235Z,53.10
2023-03-06T02:38:46.991Z,53.27
2023-03-06T02:41:14.681Z,53.23
2023-03-06T02:43:45.775Z,53.07
2023-03-06T02:46:13.892Z,52.98
2023-03-06T02:48:41.041Z,53.03
2023-03-06T02:51:08.138Z,53.03
2023-03-06T02:53:35.434Z,53.08
2023-03-06T02:56:02.975Z,53.18
2023-03-06T02:58:30.272Z,53.18
2023-03-06T03:00:57.401Z,53.31
2023-03-06T03:03:24.943Z,53.28
2023-03-06T03:05:53.270Z,53.34
2023-03-06T03:08:24.474Z,53.45
2023-03-06T03:10:56.895Z,53.47
2023-03-06T03:13:25.418Z,53.68
2023-03-06T03:16:09.091Z,53.65
2023-03-06T03:18:36.672Z,53.90
2023-03-06T03:21:14.262Z,53.80
2023-03-06T03:23:41.687Z,53.79
2023-03-06T03:26:22.025Z,53.74
2023-03-06T03:29:05.178Z,53.88
2023-03-06T03:31:33.050Z,54.00
2023-03-06T03:34:02.459Z,53.99
2023-03-06T03:36:32.934Z,54.20
2023-03-06T03:39:00.344Z,53.94
2023-03-06T03:41:27.811Z,54.04
2023-03-06T03:43:55.015Z,54.11
2023-03-06T03:46:23.193Z,54.17
2023-03-06T03:48:52.766Z,54.10
2023-03-06T03:51:20.003Z,54.14
2023-03-06T03:53:51.372Z,54.14
2023-03-06T03:56:21.949Z,54.08
2023-03-06T03:59:00.865Z,53.97
2023-03-06T04:01:33.470Z,53.82
2023-03-06T04:04:00.825Z,53.67
2023-03-06T04:06:28.106Z,53.59
2023-03-06T04:08:55.686Z,53.63
2023-03-06T04:11:24.150Z,53.55
2023-03-06T04:13:51.393Z,53.42
2023-03-06T04:16:18.961Z,53.23
2023-03-06T04:18:46.052Z,53.16
2023-03-06T04:21:13.434Z,53.25
2023-03-06T04:23:40.805Z,53.34
2023-03-06T04:26:08.214Z,53.16
2023-03-06T04:28:35.421Z,53.14
2023-03-06T04:31:02.638Z,53.12
2023-03-06T04:33:31.378Z,53.41
2023-03-06T04:35:59.016Z,53.62
2023-03-06T04:38:29.670Z,53.85
2023-03-06T04:40:56.786Z,54.12
2023-03-06T04:43:24.034Z,53.73
2023-03-06T04:45:51.182Z,54.05
2023-03-06T04:48:18.916Z,53.91
2023-03-06T04:50:46.434Z,54.00
2023-03-06T04:53:14.613Z,53.91
2023-03-06T04:55:41.700Z,53.97
2023-03-06T04:58:11.157Z,54.12
2023-03-06T05:00:38.258Z,53.91
2023-03-06T05:03:05.400Z,53.99
2023-03-06T05:05:32.455Z,53.76
2023-03-06T05:07:59.538Z,53.80
2023-03-06T05:10:26.645Z,53.59
2023-03-06T05:12:53.677Z,53.86
2023-03-06T05:15:20.856Z,54.32
2023-03-06T05:17:47.924Z,54.01
2023-03-06T05:20:17.631Z,53.58
2023-03-06T05:22:45.076Z,53.23
2023-03-06T05:25:12.359Z,53.41
2023-03-06T05:27:40.082Z,53.73
2023-03-06T05:30:10.130Z,53.55
2023-03-06T05:32:37.437Z,53.17
2023-03-06T05:35:06.179Z,53.39
2023-03-06T05:37:33.800Z,53.47
2023-03-06T05:40:01.245Z,53.83
2023-03-06T05:42:31.129Z,53.60
2023-03-06T05:44:58.183Z,53.55
2023-03-06T05:47:25.247Z,53.38
2023-03-06T05:49:52.343Z,53.52
2023-03-06T05:52:19.462Z,53.40
2023-03-06T05:54:51.892Z,53.36
2023-03-06T05:57:24.007Z,53.38
2023-03-06T05:59:51.979Z,53.45
2023-03-06T06:02:19.791Z,53.36
2023-03-06T06:04:46.914Z,53.11
2023-03-06T06:07:16.287Z,53.11
2023-03-06T06:09:45.611Z,52.83
2023-03-06T06:12:13.553Z,52.57
2023-03-06T06:14:40.662Z,52.74
2023-03-06T06:17:08.003Z,52.94
2023-03-06T06:19:35.276Z,52.69
2023-03-06T06:22:05.416Z,52.71
2023-03-06T06:24:32.930Z,52.59
2023-03-06T06:27:03.653Z,52.64
2023-03-06T06:29:32.178Z,52.73
2023-03-06T06:32:00.328Z,52.17
2023-03-06T06:34:28.576Z,52.18
2023-03-06T06:36:55.911Z,52.13
2023-03-06T06:39:24.641Z,51.77
2023-03-06T06:42:06.355Z,52.04
2023-03-06T06:44:40.059Z,51.75
2023-03-06T06:47:25.074Z,51.34
2023-03-06T06:49:55.241Z,51.31
2023-03-06T06:52:24.314Z,51.23
2023-03-06T06:54:52.474Z,51.10
2023-03-06T06:57:19.668Z,51.17
2023-03-06T06:59:46.702Z,51.27
2023-03-06T07:02:16.001Z,50.75
2023-03-06T07:05:02.048Z,50.52
2023-03-06T07:07:30.597Z,50.30
2023-03-06T07:09:57.720Z,50.17
2023-03-06T07:12:24.827Z,50.02
2023-03-06T07:14:52.010Z,49.99
2023-03-06T07:17:19.047Z,49.85
2023-03-06T07:19:46.185Z,49.65
2023-03-06T07:22:13.586Z,50.01
2023-03-06T07:24:40.692Z,49.46
2023-03-06T07:27:07.756Z,48.87
2023-03-06T07:29:34.875Z,48.66
2023-03-06T07:32:02.294Z,48.22
2023-03-06T07:34:29.488Z,47.86
2023-03-06T07:36:56.554Z,47.62
2023-03-06T07:39:23.667Z,47.77
2023-03-06T07:41:54.511Z,47.28
2023-03-06T07:44:23.770Z,47.31
2023-03-06T07:46:50.894Z,47.04
2023-03-06T07:49:18.246Z,46.62
2023-03-06T07:51:45.347Z,46.88
2023-03-06T07:54:12.472Z,46.92
2023-03-06T07:56:39.530Z,47.13
2023-03-06T07:59:06.662Z,47.10
2023-03-06T08:01:33.909Z,46.77
2023-03-06T08:04:02.038Z,46.57
2023-03-06T08:06:29.232Z,46.59
2023-03-06T08:08:57.273Z,46.82
2023-03-06T08:11:27.778Z,45.62
2023-03-06T08:13:56.234Z,45.64
2023-03-06T08:16:29.752Z,45.65
2023-03-06T08:18:58.131Z,45.63
2023-03-06T08:21:28.100Z,45.29
2023-03-06T08:23:55.389Z,45.12
2023-03-06T08:26:31.530Z,45.18
2023-03-06T08:29:01.067Z,45.61
2023-03-06T08:31:35.394Z,45.45
2023-03-06T08:34:06.774Z,45.22
2023-03-06T08:36:33.965Z,44.75
2023-03-06T08:39:01.623Z,45.05
2023-03-06T08:41:29.295Z,45.01
2023-03-06T08:43:57.012Z,45.32
2023-03-06T08:46:28.151Z,45.00
2023-03-06T08:48:55.799Z,44.78
2023-03-06T08:51:23.965Z,44.99
2023-03-06T08:53:52.307Z,44.39
2023-03-06T08:56:25.482Z,44.53
2023-03-06T08:58:53.388Z,44.49
2023-03-06T09:01:24.807Z,44.24
2023-03-06T09:03:55.450Z,44.65
2023-03-06T09:06:24.359Z,44.56
2023-03-06T09:08:55.322Z,44.93
2023-03-06T09:11:25.636Z,44.40
2023-03-06T09:13:53.549Z,43.66
2023-03-06T09:16:20.698Z,43.15
2023-03-06T09:18:50.401Z,43.06
2023-03-06T09:21:17.531Z,43.46
2023-03-06T09:23:45.141Z,42.41
2023-03-06T09:26:12.913Z,42.34
2023-03-06T09:28:41.006Z,41.54
2023-03-06T09:31:15.785Z,41.47
2023-03-06T09:33:43.402Z,42.14
2023-03-06T09:36:23.882Z,41.53
2023-03-06T09:38:51.259Z,40.30
2023-03-06T09:41:27.619Z,40.44
2023-03-06T09:44:04.980Z,42.03
2023-03-06T09:46:43.171Z,42.58
2023-03-06T09:49:29.266Z,41.98
2023-03-06T09:52:26.063Z,41.33
2023-03-06T09:55:10.291Z,41.79
2023-03-06T09:58:07.135Z,41.28
2023-03-06T10:00:41.869Z,41.15
2023-03-06T10:03:29.798Z,41.30
2023-03-06T10:06:03.478Z,41.06
2023-03-06T10:08:58.585Z,41.66
2023-03-06T10:11:43.858Z,41.29
2023-03-06T10:14:22.218Z,42.21
2023-03-06T10:16:49.901Z,41.68
2023-03-06T10:19:20.348Z,40.71
2023-03-06T10:21:56.353Z,40.85
2023-03-06T10:24:26.573Z,40.76
2023-03-06T10:27:37.475Z,42.16
2023-03-06T10:30:44.026Z,42.58
2023-03-06T10:33:41.215Z,42.92
2023-03-06T10:36:15.911Z,41.80
2023-03-06T10:38:45.259Z,41.43
2023-03-06T10:41:12.559Z,41.38
2023-03-06T10:44:04.908Z,41.47
2023-03-06T10:46:37.542Z,40.76
2023-03-06T10:49:11.401Z,41.38
2023-03-06T10:51:38.524Z,40.77
2023-03-06T10:54:14.683Z,40.54
2023-03-06T10:56:44.618Z,41.36
2023-03-06T10:59:20.415Z,41.35
2023-03-06T11:02:18.314Z,42.82
2023-03-06T11:04:52.986Z,43.88
2023-03-06T11:07:22.198Z,43.80
2023-03-06T11:09:58.551Z,43.28
2023-03-06T11:12:34.798Z,43.53
2023-03-06T11:15:18.451Z,43.57
2023-03-06T11:17:55.771Z,44.40
2023-03-06T11:20:33.586Z,44.93
2023-03-06T11:23:29.393Z,46.30
2023-03-06T11:26:36.754Z,47.23
2023-03-06T11:29:38.701Z,46.71
2023-03-06T11:32:21.626Z,45.79
2023-03-06T11:34:56.465Z,47.04
2023-03-06T11:37:32.811Z,46.45
2023-03-06T11:40:13.766Z,46.40
2023-03-06T11:42:56.314Z,46.39
2023-03-06T11:45:45.572Z,48.61
2023-03-06T11:48:16.589Z,48.47
2023-03-06T11:50:53.366Z,48.82
2023-03-06T11:53:32.601Z,47.75
2023-03-06T11:56:29.472Z,46.12
2023-03-06T11:59:19.154Z,45.30
2023-03-06T12:02:18.738Z,45.09
2023-03-06T12:05:07.601Z,43.70
2023-03-06T12:07:59.428Z,42.94
2023-03-06T12:10:51.525Z,42.09
2023-03-06T12:13:46.791Z,40.54
2023-03-06T12:16:38.640Z,40.42
2023-03-06T12:19:18.297Z,40.84
2023-03-06T12:22:06.524Z,42.26
2023-03-06T12:25:27.787Z,44.26
2023-03-06T12:28:12.798Z,44.40
2023-03-06T12:31:02.527Z,45.35
2023-03-06T12:33:54.090Z,45.83
2023-03-06T12:36:56.718Z,45.79
2023-03-06T12:39:24.101Z,45.95
2023-03-06T12:42:23.241Z,45.56
2023-03-06T12:45:17.190Z,45.82
2023-03-06T12:47:48.135Z,46.61
2023-03-06T12:50:31.736Z,47.13
2023-03-06T12:53:04.693Z,47.15
2023-03-06T12:55:47.906Z,48.38
2023-03-06T12:58:30.372Z,49.17
2023-03-06T13:01:07.361Z,50.54
2023-03-06T13:04:07.822Z,52.94
2023-03-06T13:06:54.625Z,55.31
2023-03-06T13:10:01.556Z,55.35
2023-03-06T13:12:56.037Z,55.15
2023-03-06T13:16:04.246Z,55.40
2023-03-06T13:18:34.132Z,55.75
2023-03-06T13:21:01.704Z,56.52
2023-03-06T13:23:38.344Z,55.51
2023-03-06T13:26:25.071Z,53.93
2023-03-06T13:28:55.166Z,52.92
2023-03-06T13:31:34.380Z,53.29
2023-03-06T13:34:26.399Z,52.04
2023-03-06T13:36:53.444Z,50.66
2023-03-06T13:39:20.572Z,50.34
2023-03-06T13:41:57.316Z,49.78
2023-03-06T13:44:24.518Z,49.42
2023-03-06T13:47:06.737Z,48.53
2023-03-06T13:49:35.356Z,47.73
2023-03-06T13:52:26.781Z,47.17
2023-03-06T13:55:48.644Z,47.86
2023-03-06T13:59:06.889Z,46.06
2023-03-06T14:01:56.800Z,44.55
2023-03-06T14:04:34.415Z,43.67
2023-03-06T14:07:07.219Z,41.78
2023-03-06T14:09:45.872Z,43.38
2023-03-06T14:12:37.252Z,43.16
2023-03-06T14:15:17.137Z,42.59
2023-03-06T14:17:54.822Z,45.08
2023-03-06T14:20:28.253Z,46.10
2023-03-06T14:23:29.089Z,46.00
2023-03-06T14:26:01.960Z,46.38
2023-03-06T14:28:31.877Z,47.18
2023-03-06T14:31:01.456Z,47.57
2023-03-06T14:34:05.401Z,45.76
2023-03-06T14:36:52.813Z,45.22
2023-03-06T14:39:41.955Z,44.77
2023-03-06T14:42:25.836Z,45.94
2023-03-06T14:45:19.919Z,46.71
2023-03-06T14:47:52.077Z,46.04
2023-03-06T14:50:30.430Z,45.88
2023-03-06T14:53:04.291Z,44.16
2023-03-06T14:55:35.662Z,44.53
2023-03-06T14:58:17.454Z,43.72
2023-03-06T15:00:49.552Z,44.97
2023-03-06T15:03:33.728Z,44.97
2023-03-06T15:06:01.315Z,44.70
2023-03-06T15:08:32.223Z,43.67
2023-03-06T15:11:03.847Z,43.89
2023-03-06T15:13:33.215Z,43.84
2023-03-06T15:16:14.877Z,45.09
2023-03-06T15:19:02.562Z,45.52
2023-03-06T15:21:36.675Z,46.56
2023-03-06T15:24:32.545Z,46.44
2023-03-06T15:27:06.761Z,45.63
2023-03-06T15:29:38.124Z,45.74
2023-03-06T15:32:28.448Z,45.95
2023-03-06T15:35:32.805Z,46.41
2023-03-06T15:38:00.603Z,47.37
2023-03-06T15:40:31.176Z,47.33
2023-03-06T15:42:59.447Z,47.79
2023-03-06T15:45:29.441Z,48.23
2023-03-06T15:47:56.751Z,47.98
2023-03-06T15:50:26.952Z,47.80
2023-03-06T15:52:54.390Z,48.00
2023-03-06T15:55:26.205Z,48.53
2023-03-06T15:58:02.216Z,48.75
2023-03-06T16:00:40.074Z,50.81
2023-03-06T16:03:10.411Z,54.48
2023-03-06T16:05:37.778Z,57.36
2023-03-06T16:08:06.166Z,57.88
2023-03-06T16:10:44.722Z,58.69
2023-03-06T16:13:18.792Z,59.38
2023-03-06T16:15:49.450Z,60.18
2023-03-06T16:18:17.779Z,60.21
2023-03-06T16:20:45.149Z,60.65
2023-03-06T16:23:12.578Z,60.00
2023-03-06T16:25:43.148Z,59.39
2023-03-06T16:28:15.634Z,58.86
2023-03-06T16:30:44.607Z,59.99
2023-03-06T16:33:13.381Z,59.62
2023-03-06T16:35:41.287Z,59.97
2023-03-06T16:38:10.133Z,59.92
2023-03-06T16:40:41.295Z,59.00
2023-03-06T16:43:10.755Z,58.64
2023-03-06T16:45:40.510Z,59.04
2023-03-06T16:48:14.118Z,58.02
2023-03-06T16:50:41.603Z,59.45
2023-03-06T16:53:09.352Z,58.90
2023-03-06T16:55:36.713Z,58.37
2023-03-06T16:58:04.592Z,59.04
2023-03-06T17:00:33.395Z,58.34
2023-03-06T17:03:02.046Z,57.89
2023-03-06T17:05:33.204Z,58.01
2023-03-06T17:08:00.356Z,58.28
2023-03-06T17:10:27.529Z,58.55
2023-03-06T17:12:55.860Z,59.18
2023-03-06T17:15:23.752Z,59.30
2023-03-06T17:17:51.749Z,59.43
2023-03-06T17:20:19.913Z,59.58
2023-03-06T17:22:46.949Z,59.84
2023-03-06T17:25:14.255Z,60.11
2023-03-06T17:27:41.323Z,59.77
2023-03-06T17:30:09.936Z,59.42
2023-03-06T17:32:40.020Z,59.30
2023-03-06T17:35:09.637Z,59.11
2023-03-06T17:37:36.770Z,58.78
2023-03-06T17:40:07.820Z,58.48
2023-03-06T17:42:35.490Z,58.55
2023-03-06T17:45:02.781Z,58.54
2023-03-06T17:47:30.152Z,58.19
2023-03-06T17:49:57.228Z,58.01
2023-03-06T17:52:24.438Z,58.19
2023-03-06T17:54:51.649Z,57.83
2023-03-06T17:57:18.985Z,57.78
2023-03-06T17:59:48.563Z,57.34
2023-03-06T18:02:15.906Z,57.52
2023-03-06T18:04:43.051Z,57.56
2023-03-06T18:07:10.324Z,57.46
2023-03-06T18:09:37.886Z,57.14
2023-03-06T18:12:05.283Z,56.57
2023-03-06T18:14:32.504Z,56.76
2023-03-06T18:16:59.698Z,56.29
2023-03-06T18:19:26.898Z,56.16
2023-03-06T18:21:54.040Z,55.87
2023-03-06T18:24:21.414Z,55.86
2023-03-06T18:26:48.522Z,55.68
2023-03-06T18:29:16.499Z,55.94
2023-03-06T18:31:43.833Z,55.53
2023-03-06T18:34:14.557Z,55.58
2023-03-06T18:36:47.172Z,56.37
2023-03-06T18:39:15.894Z,56.68
2023-03-06T18:41:43.066Z,56.63
2023-03-06T18:44:17.503Z,56.42
2023-03-06T18:46:45.109Z,56.67
2023-03-06T18:49:13.344Z,56.74
2023-03-06T18:51:40.998Z,56.74
2023-03-06T18:54:08.621Z,56.87
2023-03-06T18:56:35.921Z,57.33
2023-03-06T18:59:06.611Z,57.17
2023-03-06T19:01:34.306Z,57.51
2023-03-06T19:04:03.838Z,57.25
2023-03-06T19:06:31.678Z,57.39
2023-03-06T19:08:58.990Z,57.33
2023-03-06T19:11:26.877Z,57.36
2023-03-06T19:13:54.558Z,57.58
2023-03-06T19:16:27.929Z,57.62
2023-03-06T19:18:55.794Z,57.44
2023-03-06T19:21:26.573Z,57.37
2023-03-06T19:23:54.175Z,56.77
2023-03-06T19:26:21.883Z,56.94
2023-03-06T19:28:49.356Z,56.78
2023-03-06T19:31:27.331Z,56.58
2023-03-06T19:33:56.775Z,57.14
2023-03-06T19:36:28.666Z,57.05
2023-03-06T19:39:01.572Z,57.13
2023-03-06T19:41:29.027Z,56.76
2023-03-06T19:44:03.199Z,56.63
2023-03-06T19:46:31.744Z,56.29
2023-03-06T19:49:03.356Z,56.00
2023-03-06T19:51:30.685Z,56.37
2023-03-06T19:53:58.206Z,56.36
2023-03-06T19:56:28.917Z,56.13
2023-03-06T19:58:56.691Z,56.18
2023-03-06T20:01:27.115Z,56.05
2023-03-06T20:03:59.410Z,56.31
2023-03-06T20:06:31.376Z,56.61
2023-03-06T20:08:58.453Z,56.65
2023-03-06T20:11:29.979Z,56.56
2023-03-06T20:13:59.403Z,56.58
2023-03-06T20:16:28.609Z,57.00
2023-03-06T20:18:58.921Z,57.12
2023-03-06T20:21:28.435Z,57.48
2023-03-06T20:23:58.230Z,57.55
2023-03-06T20:26:28.355Z,57.98
2023-03-06T20:28:56.164Z,57.91
2023-03-06T20:31:27.794Z,58.15
2023-03-06T20:33:58.386Z,58.36
2023-03-06T20:36:32.108Z,58.23
2023-03-06T20:39:01.228Z,58.07
2023-03-06T20:41:30.330Z,58.15
2023-03-06T20:44:00.138Z,58.08
2023-03-06T20:46:28.507Z,58.10
2023-03-06T20:48:56.372Z,58.10
2023-03-06T20:51:27.887Z,57.94
2023-03-06T20:53:56.049Z,58.10
2023-03-06T20:56:27.114Z,58.10
2023-03-06T20:58:54.518Z,57.96
2023-03-06T21:01:34.477Z,57.65
2023-03-06T21:04:04.543Z,57.59
2023-03-06T21:06:32.435Z,57.35
2023-03-06T21:09:01.217Z,57.15
2023-03-06T21:11:28.904Z,57.11
2023-03-06T21:13:56.404Z,56.93
2023-03-06T21:16:25.930Z,57.01
2023-03-06T21:18:55.687Z,57.14
2023-03-06T21:21:28.714Z,57.19
2023-03-06T21:23:56.030Z,57.57
2023-03-06T21:26:27.167Z,57.59
2023-03-06T21:28:54.746Z,57.87
2023-03-06T21:31:22.539Z,57.95
2023-03-06T21:33:50.462Z,58.08
2023-03-06T21:36:20.514Z,58.04
2023-03-06T21:38:49.223Z,57.99
2023-03-06T21:41:24.233Z,58.05
2023-03-06T21:44:00.051Z,58.04
2023-03-06T21:46:28.544Z,57.95
2023-03-06T21:48:56.580Z,57.81
2023-03-06T21:51:25.578Z,57.86
2023-03-06T21:53:54.683Z,57.89
2023-03-06T21:56:25.508Z,57.90
2023-03-06T21:58:53.060Z,57.99
2023-03-06T22:01:27.518Z,58.23
2023-03-06T22:03:55.334Z,58.55
2023-03-06T22:06:25.882Z,58.57
2023-03-06T22:08:55.962Z,58.55
2023-03-06T22:11:25.881Z,58.37
2023-03-06T22:13:53.406Z,58.71
2023-03-06T22:16:20.943Z,58.74
2023-03-06T22:18:50.774Z,58.79
2023-03-06T22:21:21.086Z,58.82
2023-03-06T22:23:54.040Z,58.78
2023-03-06T22:26:21.269Z,58.68
2023-03-06T22:28:48.559Z,58.19
2023-03-06T22:31:25.504Z,58.29
2023-03-06T22:33:54.764Z,58.28
2023-03-06T22:36:23.324Z,58.18
2023-03-06T22:38:55.827Z,58.15
2023-03-06T22:41:25.726Z,58.18
2023-03-06T22:43:57.514Z,57.99
2023-03-06T22:46:26.031Z,57.89
2023-03-06T22:48:55.978Z,58.17
2023-03-06T22:51:23.514Z,57.59
2023-03-06T22:53:50.728Z,57.91
2023-03-06T22:56:21.413Z,57.88
2023-03-06T22:58:49.017Z,57.95
2023-03-06T23:01:23.141Z,57.80
2023-03-06T23:03:53.926Z,57.48
2023-03-06T23:06:28.360Z,57.01
2023-03-06T23:08:59.891Z,56.66
2023-03-06T23:11:28.346Z,56.37
2023-03-06T23:14:15.162Z,56.13
2023-03-06T23:17:00.558Z,55.87
2023-03-06T23:19:49.070Z,55.64
2023-03-06T23:22:34.526Z,55.35
2023-03-06T23:25:19.993Z,55.65
2023-03-06T23:27:47.092Z,55.46
2023-03-06T23:30:14.519Z,55.28
2023-03-06T23:32:42.575Z,55.29
2023-03-06T23:35:10.817Z,54.95
2023-03-06T23:37:37.871Z,55.33
2023-03-06T23:40:07.982Z,54.84
2023-03-06T23:42:35.298Z,55.00
2023-03-06T23:45:02.723Z,55.25
2023-03-06T23:47:34.032Z,55.27
2023-03-06T23:50:01.173Z,55.39
2023-03-06T23:52:28.236Z,55.49
2023-03-06T23:54:55.311Z,55.36
2023-03-06T23:57:22.322Z,55.38
2023-03-06T23:59:49.406Z,55.42
